CheckWX is a tool to help pilots better visualize weather data.  It is not intended as a substitute for an official pre-flight weather briefing.

22:40:03 UTC

KNQA METAR
Millington Regional Jetport Airport
Millington, Tennessee, USA
Current

50 mins ago

KNQA 162150Z 34008G14KT 10SM CLR 16/06 A3007
Observed
Oct-16 @ 21:50 UTC
Wind
  • 340° at 8 KTS
  • Gusting to 14 KTS
Visibility
10 SM
Flight Rules
VFR
Cloud Levels
  • Clear skies
Temperature
16°C / 61°F
Dewpoint
C / 43°F
Humidity
52%
Altimeter
30.07" Hg
Pressure
1018.32 hPa
Previous

2 hours ago

KNQA 162050Z 35010KT 10SM CLR 16/06 A3008
Observed
Oct-16 @ 20:50 UTC
Wind
  • 350° at 10 KTS
Visibility
10 SM
Flight Rules
VFR
Cloud Levels
  • Clear skies
Temperature
16°C / 61°F
Dewpoint
C / 43°F
Humidity
52%
Altimeter
30.08" Hg
Pressure
1018.62 hPa
Previous

3 hours ago

KNQA 161950Z 32007G13KT 10SM CLR 16/05 A3006
Observed
Oct-16 @ 19:50 UTC
Wind
  • 320° at 7 KTS
  • Gusting to 13 KTS
Visibility
10 SM
Flight Rules
VFR
Cloud Levels
  • Clear skies
Temperature
16°C / 61°F
Dewpoint
C / 41°F
Humidity
48%
Altimeter
30.06" Hg
Pressure
1017.92 hPa